createdAt,value
2023-01-07T00:00:04.496Z,40.50
2023-01-07T00:02:32.785Z,40.70
2023-01-07T00:05:00.802Z,40.60
2023-01-07T00:07:30.395Z,40.50
2023-01-07T00:09:58.352Z,41.00
2023-01-07T00:12:26.377Z,40.40
2023-01-07T00:14:54.599Z,40.70
2023-01-07T00:17:22.651Z,40.80
2023-01-07T00:19:50.682Z,41.10
2023-01-07T00:22:18.658Z,40.60
2023-01-07T00:24:48.375Z,40.60
2023-01-07T00:27:16.375Z,41.40
2023-01-07T00:29:44.317Z,41.00
2023-01-07T00:32:12.319Z,40.70
2023-01-07T00:34:40.293Z,41.10
2023-01-07T00:37:25.936Z,41.00
2023-01-07T00:39:55.277Z,41.00
2023-01-07T00:42:40.854Z,40.90
2023-01-07T00:45:10.922Z,41.10
2023-01-07T00:47:38.968Z,40.60
2023-01-07T00:50:08.274Z,40.90
2023-01-07T00:52:36.262Z,41.00
2023-01-07T00:55:06.990Z,41.20
2023-01-07T00:57:35.027Z,40.60
2023-01-07T01:00:03.206Z,40.80
2023-01-07T01:02:31.360Z,41.00
2023-01-07T01:04:59.367Z,40.90
2023-01-07T01:07:27.532Z,41.10
2023-01-07T01:09:55.521Z,41.00
2023-01-07T01:12:24.934Z,40.70
2023-01-07T01:14:53.017Z,40.90
2023-01-07T01:17:22.271Z,40.80
2023-01-07T01:19:50.421Z,40.60
2023-01-07T01:22:18.504Z,40.80
2023-01-07T01:24:46.543Z,40.90
2023-01-07T01:27:14.551Z,41.10
2023-01-07T01:29:44.060Z,41.10
2023-01-07T01:32:12.195Z,40.80
2023-01-07T01:34:40.241Z,40.80
2023-01-07T01:37:08.225Z,41.00
2023-01-07T01:39:36.229Z,40.90
2023-01-07T01:42:04.398Z,41.20
2023-01-07T01:44:40.892Z,41.00
2023-01-07T01:47:21.729Z,41.00
2023-01-07T01:49:58.399Z,41.20
2023-01-07T01:52:32.856Z,40.90
2023-01-07T01:55:02.932Z,40.80
2023-01-07T01:57:33.673Z,40.90
2023-01-07T02:00:02.058Z,41.10
2023-01-07T02:02:37.386Z,40.70
2023-01-07T02:05:06.901Z,41.10
2023-01-07T02:07:34.891Z,41.00
2023-01-07T02:10:14.823Z,41.00
2023-01-07T02:12:57.601Z,41.40
2023-01-07T02:15:34.576Z,41.20
2023-01-07T02:18:31.977Z,41.00
2023-01-07T02:21:21.525Z,41.20
2023-01-07T02:24:40.485Z,41.10
2023-01-07T02:27:21.126Z,41.30
2023-01-07T02:30:19.459Z,41.20
2023-01-07T02:33:11.525Z,41.00
2023-01-07T02:36:00.578Z,40.60
2023-01-07T02:38:42.938Z,41.40
2023-01-07T02:41:22.359Z,41.50
2023-01-07T02:43:58.401Z,41.70
2023-01-07T02:46:31.925Z,41.80
2023-01-07T02:49:04.221Z,41.70
2023-01-07T02:51:36.792Z,41.40
2023-01-07T02:54:06.770Z,41.50
2023-01-07T02:56:53.923Z,41.20
2023-01-07T02:59:56.373Z,41.10
2023-01-07T03:03:08.409Z,40.80
2023-01-07T03:08:58.718Z,41.50
2023-01-07T03:11:32.413Z,41.20
2023-01-07T03:14:09.472Z,41.20
2023-01-07T03:16:41.344Z,41.30
2023-01-07T03:19:15.028Z,41.30
2023-01-07T03:21:47.227Z,41.60
2023-01-07T03:24:17.276Z,41.60
2023-01-07T03:26:50.045Z,41.50
2023-01-07T03:29:19.932Z,41.60
2023-01-07T03:31:56.351Z,41.60
2023-01-07T03:34:27.686Z,41.50
2023-01-07T03:37:02.504Z,41.60
2023-01-07T03:39:34.042Z,41.30
2023-01-07T03:42:19.293Z,41.00
2023-01-07T03:44:47.333Z,41.30
2023-01-07T03:47:15.398Z,41.20
2023-01-07T03:49:43.434Z,41.20
2023-01-07T03:52:12.799Z,41.70
2023-01-07T03:54:40.816Z,41.00
2023-01-07T03:57:08.911Z,41.20
2023-01-07T03:59:36.981Z,41.60
2023-01-07T04:02:05.314Z,41.40
2023-01-07T04:04:33.571Z,41.80
2023-01-07T04:07:01.603Z,41.20
2023-01-07T04:09:30.934Z,40.90
2023-01-07T04:11:58.954Z,41.40
2023-01-07T04:14:26.930Z,41.30
2023-01-07T04:16:55.054Z,41.30
2023-01-07T04:19:23.382Z,42.40
2023-01-07T04:21:51.394Z,41.40
2023-01-07T04:24:19.335Z,41.30
2023-01-07T04:26:48.713Z,40.60
2023-01-07T04:29:16.645Z,41.10
2023-01-07T04:31:44.637Z,41.20
2023-01-07T04:34:12.651Z,41.10
2023-01-07T04:36:40.598Z,41.10
2023-01-07T04:39:08.577Z,40.90
2023-01-07T04:41:36.545Z,40.60
2023-01-07T04:44:06.657Z,40.50
2023-01-07T04:46:34.742Z,40.50
2023-01-07T04:49:02.690Z,40.70
2023-01-07T04:51:30.684Z,40.60
2023-01-07T04:53:58.684Z,40.80
2023-01-07T04:56:26.667Z,40.90
2023-01-07T04:58:54.751Z,40.20
2023-01-07T05:01:25.331Z,40.30
2023-01-07T05:03:53.455Z,40.50
2023-01-07T05:06:21.460Z,40.40
2023-01-07T05:08:49.446Z,40.40
2023-01-07T05:11:21.461Z,40.70
2023-01-07T05:13:50.594Z,40.60
2023-01-07T05:16:18.698Z,40.40
2023-01-07T05:18:48.036Z,40.50
2023-01-07T05:21:16.012Z,40.60
2023-01-07T05:23:43.969Z,40.40
2023-01-07T05:26:11.998Z,40.50
2023-01-07T05:28:39.914Z,40.30
2023-01-07T05:31:07.919Z,40.50
2023-01-07T05:33:35.948Z,41.50
2023-01-07T05:36:05.842Z,40.60
2023-01-07T05:38:33.783Z,40.30
2023-01-07T05:41:01.727Z,40.20
2023-01-07T05:43:30.025Z,40.50
2023-01-07T05:45:59.063Z,40.80
2023-01-07T05:48:27.053Z,39.90
2023-01-07T05:50:54.988Z,40.60
2023-01-07T05:53:24.339Z,40.40
2023-01-07T05:55:57.413Z,40.40
2023-01-07T05:58:25.799Z,40.20
2023-01-07T06:00:53.901Z,40.40
2023-01-07T06:03:22.087Z,40.10
2023-01-07T06:05:50.566Z,40.00
2023-01-07T06:08:18.672Z,39.90
2023-01-07T06:10:48.002Z,40.40
2023-01-07T06:13:16.064Z,40.20
2023-01-07T06:15:44.142Z,40.40
2023-01-07T06:18:12.135Z,40.20
2023-01-07T06:20:40.063Z,40.30
2023-01-07T06:23:08.076Z,40.10
2023-01-07T06:25:36.093Z,40.20
2023-01-07T06:28:06.057Z,40.20
2023-01-07T06:30:34.024Z,40.50
2023-01-07T06:33:02.074Z,39.80
2023-01-07T06:35:30.051Z,40.30
2023-01-07T06:37:58.282Z,40.60
2023-01-07T06:40:26.314Z,40.40
2023-01-07T06:42:54.315Z,40.20
2023-01-07T06:45:23.941Z,40.20
2023-01-07T06:47:51.950Z,40.10
2023-01-07T06:50:20.066Z,40.40
2023-01-07T06:52:48.192Z,40.40
2023-01-07T06:55:16.293Z,40.40
2023-01-07T06:57:44.265Z,40.20
2023-01-07T07:00:13.786Z,40.10
2023-01-07T07:02:43.068Z,40.30
2023-01-07T07:05:12.014Z,40.50
2023-01-07T07:07:40.065Z,39.90
2023-01-07T07:10:09.657Z,40.40
2023-01-07T07:12:38.779Z,40.20
2023-01-07T07:15:09.336Z,40.40
2023-01-07T07:17:37.289Z,40.10
2023-01-07T07:20:08.423Z,40.30
2023-01-07T07:22:36.358Z,40.30
2023-01-07T07:25:04.704Z,40.10
2023-01-07T07:27:32.658Z,40.30
2023-01-07T07:30:00.686Z,40.40
2023-01-07T07:32:28.699Z,40.30
2023-01-07T07:34:57.679Z,40.40
2023-01-07T07:37:27.062Z,40.40
2023-01-07T07:39:55.091Z,40.30
2023-01-07T07:42:23.191Z,40.50
2023-01-07T07:44:51.182Z,40.50
2023-01-07T07:47:19.731Z,40.40
2023-01-07T07:49:47.720Z,40.50
2023-01-07T07:52:15.666Z,39.70
2023-01-07T07:54:45.125Z,40.50
2023-01-07T07:57:13.051Z,40.10
2023-01-07T07:59:41.035Z,40.20
2023-01-07T08:02:10.129Z,40.10
2023-01-07T08:04:38.097Z,40.20
2023-01-07T08:07:06.104Z,40.10
2023-01-07T08:09:34.165Z,40.30
2023-01-07T08:12:03.471Z,39.80
2023-01-07T08:14:31.615Z,40.40
2023-01-07T08:16:59.683Z,40.00
2023-01-07T08:19:27.641Z,40.30
2023-01-07T08:21:55.587Z,40.50
2023-01-07T08:24:23.619Z,40.30
2023-01-07T08:26:55.293Z,40.10
2023-01-07T08:29:24.843Z,40.40
2023-01-07T08:31:53.278Z,40.30
2023-01-07T08:34:21.332Z,40.20
2023-01-07T08:36:49.279Z,40.00
2023-01-07T08:39:17.297Z,40.30
2023-01-07T08:41:45.279Z,40.10
2023-01-07T08:44:13.360Z,40.20
2023-01-07T08:46:42.932Z,40.10
2023-01-07T08:49:11.051Z,40.30
2023-01-07T08:51:39.017Z,40.20
2023-01-07T08:54:07.019Z,40.30
2023-01-07T08:56:35.072Z,40.10
2023-01-07T08:59:03.140Z,39.90
2023-01-07T09:01:31.276Z,39.70
2023-01-07T09:04:00.603Z,40.00
2023-01-07T09:06:28.600Z,39.50
2023-01-07T09:08:56.653Z,39.70
2023-01-07T09:11:24.732Z,39.80
2023-01-07T09:13:52.683Z,39.70
2023-01-07T09:16:20.679Z,39.30
2023-01-07T09:18:48.813Z,39.50
2023-01-07T09:21:18.176Z,39.70
2023-01-07T09:23:46.230Z,39.50
2023-01-07T09:26:14.232Z,39.40
2023-01-07T09:28:42.203Z,39.40
2023-01-07T09:31:10.210Z,39.60
2023-01-07T09:33:40.104Z,39.50
2023-01-07T09:36:08.859Z,38.90
2023-01-07T09:38:38.121Z,39.00
2023-01-07T09:41:14.726Z,39.10
2023-01-07T09:44:00.175Z,38.90
2023-01-07T09:46:30.408Z,38.30
2023-01-07T09:49:03.364Z,38.40
2023-01-07T09:51:36.289Z,37.30
2023-01-07T09:54:12.923Z,37.00
2023-01-07T09:56:41.776Z,37.10
2023-01-07T09:59:13.426Z,36.60
2023-01-07T10:01:50.926Z,36.30
2023-01-07T10:04:34.243Z,36.40
2023-01-07T10:07:16.395Z,35.00
2023-01-07T10:10:10.208Z,35.70
2023-01-07T10:12:45.741Z,35.30
2023-01-07T10:15:44.602Z,35.70
2023-01-07T10:18:33.191Z,35.80
2023-01-07T10:21:13.700Z,36.10
2023-01-07T10:23:45.292Z,36.10
2023-01-07T10:26:23.593Z,36.20
2023-01-07T10:28:55.857Z,36.20
2023-01-07T10:31:26.957Z,36.20
2023-01-07T10:33:58.390Z,36.00
2023-01-07T10:36:29.143Z,36.20
2023-01-07T10:39:08.859Z,36.50
2023-01-07T10:41:52.652Z,36.70
2023-01-07T10:45:35.814Z,36.60
2023-01-07T10:48:36.175Z,37.00
2023-01-07T10:51:17.351Z,37.20
2023-01-07T10:53:58.820Z,37.60
2023-01-07T10:56:32.395Z,37.90
2023-01-07T10:59:06.410Z,37.90
2023-01-07T11:01:37.907Z,38.20
2023-01-07T11:04:15.069Z,38.10
2023-01-07T11:06:48.969Z,37.80
2023-01-07T11:09:21.993Z,38.00
2023-01-07T11:11:52.727Z,38.30
2023-01-07T11:14:26.479Z,38.20
2023-01-07T11:17:02.899Z,38.20
2023-01-07T11:19:44.735Z,38.00
2023-01-07T11:22:40.255Z,38.10
2023-01-07T11:25:29.160Z,38.30
2023-01-07T11:28:01.085Z,38.20
2023-01-07T11:30:33.713Z,39.00
2023-01-07T11:33:05.687Z,38.30
2023-01-07T11:35:34.161Z,38.20
2023-01-07T11:38:02.309Z,38.40
2023-01-07T11:40:33.184Z,38.60
2023-01-07T11:43:12.432Z,38.50
2023-01-07T11:46:19.839Z,38.00
2023-01-07T11:48:42.906Z,38.30
2023-01-07T11:51:11.616Z,38.00
2023-01-07T11:53:45.156Z,38.30
2023-01-07T11:56:15.901Z,38.00
2023-01-07T11:58:46.880Z,38.40
2023-01-07T12:01:19.767Z,38.60
2023-01-07T12:04:20.158Z,38.20
2023-01-07T12:06:52.026Z,37.30
2023-01-07T12:09:27.110Z,38.00
2023-01-07T12:11:57.996Z,37.80
2023-01-07T12:14:29.902Z,37.10
2023-01-07T12:17:12.029Z,37.40
2023-01-07T12:20:03.821Z,37.10
2023-01-07T12:22:44.398Z,36.90
2023-01-07T12:25:40.714Z,37.40
2023-01-07T12:28:15.504Z,37.60
2023-01-07T12:31:12.997Z,37.30
2023-01-07T12:34:00.311Z,37.70
2023-01-07T12:36:37.247Z,36.80
2023-01-07T12:39:14.960Z,36.30
2023-01-07T12:41:50.119Z,37.00
2023-01-07T12:44:21.802Z,36.60
2023-01-07T12:47:31.939Z,36.20
2023-01-07T12:49:59.811Z,36.20
2023-01-07T12:52:39.616Z,36.20
2023-01-07T12:55:18.749Z,35.00
2023-01-07T12:58:00.627Z,34.90
2023-01-07T13:00:33.344Z,34.90
2023-01-07T13:03:11.834Z,34.00
2023-01-07T13:05:48.484Z,33.90
2023-01-07T13:08:28.055Z,34.30
2023-01-07T13:11:01.548Z,34.30
2023-01-07T13:13:34.858Z,34.20
2023-01-07T13:16:02.967Z,34.40
2023-01-07T13:18:31.612Z,33.60
2023-01-07T13:21:08.406Z,34.50
2023-01-07T13:24:00.877Z,34.50
2023-01-07T13:26:40.547Z,34.40
2023-01-07T13:29:25.842Z,34.60
2023-01-07T13:32:16.610Z,34.60
2023-01-07T13:35:01.633Z,33.80
2023-01-07T13:38:04.785Z,34.30
2023-01-07T13:40:52.449Z,34.40
2023-01-07T13:43:41.239Z,34.00
2023-01-07T13:46:14.061Z,34.10
2023-01-07T13:48:48.470Z,34.20
2023-01-07T13:51:17.504Z,34.80
2023-01-07T13:53:47.952Z,33.50
2023-01-07T13:56:38.837Z,33.00
2023-01-07T13:59:48.044Z,33.40
2023-01-07T14:02:20.574Z,33.00
2023-01-07T14:05:06.181Z,33.00
2023-01-07T14:07:46.358Z,32.50
2023-01-07T14:10:26.506Z,33.00
2023-01-07T14:13:13.089Z,33.90
2023-01-07T14:16:02.075Z,32.90
2023-01-07T14:19:10.190Z,33.10
2023-01-07T14:22:07.263Z,32.70
2023-01-07T14:25:03.128Z,32.40
2023-01-07T14:27:52.322Z,32.40
2023-01-07T14:30:24.488Z,32.20
2023-01-07T14:33:02.293Z,32.20
2023-01-07T14:35:35.256Z,32.20
2023-01-07T14:38:03.436Z,32.40
2023-01-07T14:41:07.845Z,32.50
2023-01-07T14:44:29.110Z,32.50
2023-01-07T14:46:57.343Z,32.30
2023-01-07T14:49:58.273Z,32.60
2023-01-07T14:53:02.305Z,32.50
2023-01-07T14:56:06.691Z,33.00
2023-01-07T14:59:00.269Z,32.90
2023-01-07T15:01:46.059Z,32.60
2023-01-07T15:04:45.679Z,33.00
2023-01-07T15:07:19.568Z,32.50
2023-01-07T15:10:12.532Z,32.70
2023-01-07T15:12:59.750Z,33.00
2023-01-07T15:15:49.154Z,33.10
2023-01-07T15:18:17.558Z,32.90
2023-01-07T15:21:05.310Z,33.00
2023-01-07T15:23:43.145Z,33.10
2023-01-07T15:26:18.736Z,33.00
2023-01-07T15:28:52.470Z,33.50
2023-01-07T15:31:30.221Z,33.60
2023-01-07T15:34:12.275Z,32.70
2023-01-07T15:36:43.467Z,34.00
2023-01-07T15:39:20.331Z,33.90
2023-01-07T15:41:51.693Z,34.00
2023-01-07T15:44:23.602Z,34.30
2023-01-07T15:46:53.355Z,34.20
2023-01-07T15:49:24.428Z,34.50
2023-01-07T15:51:55.705Z,34.40
2023-01-07T15:54:35.374Z,34.60
2023-01-07T15:57:08.615Z,34.80
2023-01-07T15:59:43.639Z,34.70
2023-01-07T16:02:23.956Z,35.10
2023-01-07T16:04:54.176Z,34.90
2023-01-07T16:07:27.928Z,35.40
2023-01-07T16:09:56.861Z,35.40
2023-01-07T16:12:31.627Z,35.20
2023-01-07T16:14:59.875Z,35.20
2023-01-07T16:17:29.642Z,35.50
2023-01-07T16:20:19.698Z,35.30
2023-01-07T16:22:47.757Z,35.60
2023-01-07T16:25:24.492Z,35.70
2023-01-07T16:27:52.713Z,35.50
2023-01-07T16:30:21.020Z,35.90
2023-01-07T16:32:50.620Z,35.90
2023-01-07T16:35:22.079Z,35.60
2023-01-07T16:37:50.764Z,35.80
2023-01-07T16:40:26.528Z,35.10
2023-01-07T16:42:54.563Z,36.00
2023-01-07T16:45:29.868Z,36.20
2023-01-07T16:48:19.415Z,36.10
2023-01-07T16:50:49.727Z,36.30
2023-01-07T16:53:30.737Z,36.10
2023-01-07T16:56:19.349Z,36.30
2023-01-07T16:58:52.700Z,36.10
2023-01-07T17:01:30.242Z,36.40
2023-01-07T17:04:03.383Z,36.90
2023-01-07T17:06:40.442Z,36.80
2023-01-07T17:09:20.845Z,36.60
2023-01-07T17:11:51.820Z,36.50
2023-01-07T17:14:55.931Z,36.70
2023-01-07T17:17:31.783Z,37.80
2023-01-07T17:20:18.869Z,36.40
2023-01-07T17:22:49.433Z,36.60
2023-01-07T17:25:24.449Z,36.90
2023-01-07T17:27:56.670Z,36.40
2023-01-07T17:30:33.034Z,36.30
2023-01-07T17:33:01.232Z,37.00
2023-01-07T17:35:30.542Z,36.90
2023-01-07T17:37:58.785Z,36.50
2023-01-07T17:40:26.934Z,37.00
2023-01-07T17:43:12.707Z,37.00
2023-01-07T17:45:40.889Z,37.30
2023-01-07T17:48:14.502Z,37.20
2023-01-07T17:50:44.211Z,37.10
2023-01-07T17:53:23.323Z,37.00
2023-01-07T17:55:51.302Z,36.70
2023-01-07T17:58:27.963Z,37.30
2023-01-07T18:00:56.480Z,37.40
2023-01-07T18:03:25.425Z,37.00
2023-01-07T18:05:55.216Z,37.70
2023-01-07T18:08:23.280Z,37.50
2023-01-07T18:11:15.967Z,38.00
2023-01-07T18:13:44.059Z,37.30
2023-01-07T18:16:14.580Z,37.50
2023-01-07T18:18:42.777Z,37.70
2023-01-07T18:21:13.163Z,37.10
2023-01-07T18:23:41.265Z,37.50
2023-01-07T18:26:09.360Z,37.30
2023-01-07T18:28:37.366Z,37.30
2023-01-07T18:31:05.980Z,37.60
2023-01-07T18:33:35.270Z,37.00
2023-01-07T18:36:03.508Z,37.30
2023-01-07T18:38:33.061Z,37.40
2023-01-07T18:41:01.027Z,37.50
2023-01-07T18:43:29.041Z,37.90
2023-01-07T18:45:57.069Z,37.40
2023-01-07T18:48:25.741Z,37.60
2023-01-07T18:50:53.947Z,37.70
2023-01-07T18:53:26.457Z,37.90
2023-01-07T18:56:02.140Z,37.80
2023-01-07T18:58:30.144Z,37.90
2023-01-07T19:01:04.123Z,37.90
2023-01-07T19:03:32.384Z,37.30
2023-01-07T19:06:00.896Z,38.00
2023-01-07T19:08:29.307Z,37.20
2023-01-07T19:10:58.566Z,37.90
2023-01-07T19:13:26.617Z,37.90
2023-01-07T19:15:54.617Z,37.80
2023-01-07T19:18:22.646Z,38.00
2023-01-07T19:20:50.602Z,37.80
2023-01-07T19:23:18.634Z,37.40
2023-01-07T19:25:58.636Z,37.70
2023-01-07T19:28:27.279Z,38.10
2023-01-07T19:30:56.078Z,37.40
2023-01-07T19:33:24.177Z,38.00
2023-01-07T19:36:03.099Z,38.00
2023-01-07T19:38:31.309Z,37.80
2023-01-07T19:41:00.680Z,38.00
2023-01-07T19:43:28.677Z,38.10
2023-01-07T19:45:57.987Z,38.10
2023-01-07T19:48:26.462Z,38.10
2023-01-07T19:50:56.607Z,38.00
2023-01-07T19:53:24.968Z,38.00
2023-01-07T19:55:54.363Z,37.80
2023-01-07T19:58:23.768Z,37.90
2023-01-07T20:00:51.912Z,37.90
2023-01-07T20:03:20.010Z,37.80
2023-01-07T20:05:48.168Z,38.00
2023-01-07T20:08:16.146Z,37.90
2023-01-07T20:10:44.190Z,37.90
2023-01-07T20:13:12.218Z,37.70
2023-01-07T20:15:41.479Z,37.40
2023-01-07T20:18:09.427Z,37.70
2023-01-07T20:20:37.417Z,37.30
2023-01-07T20:23:05.435Z,37.20
2023-01-07T20:25:33.471Z,37.50
2023-01-07T20:28:01.439Z,37.70
2023-01-07T20:30:29.363Z,37.50
2023-01-07T20:32:58.646Z,37.50
2023-01-07T20:35:26.634Z,37.20
2023-01-07T20:37:54.608Z,37.50
2023-01-07T20:40:22.622Z,37.40
2023-01-07T20:42:50.669Z,37.60
2023-01-07T20:45:18.855Z,36.80
2023-01-07T20:47:46.772Z,37.20
2023-01-07T20:50:18.251Z,37.20
2023-01-07T20:52:46.178Z,37.80
2023-01-07T20:55:14.186Z,37.50
2023-01-07T20:57:42.144Z,37.40
2023-01-07T21:00:12.044Z,37.70
2023-01-07T21:02:40.172Z,37.30
2023-01-07T21:05:09.276Z,37.60
2023-01-07T21:07:38.573Z,37.50
2023-01-07T21:10:07.640Z,37.70
2023-01-07T21:12:35.611Z,37.70
2023-01-07T21:15:04.065Z,37.60
2023-01-07T21:17:32.028Z,37.80
2023-01-07T21:19:59.966Z,37.50
2023-01-07T21:22:28.009Z,37.50
2023-01-07T21:24:57.281Z,37.70
2023-01-07T21:27:25.263Z,37.50
2023-01-07T21:29:53.245Z,37.40
2023-01-07T21:32:21.224Z,37.00
2023-01-07T21:34:49.232Z,37.60
2023-01-07T21:37:17.248Z,37.60
2023-01-07T21:39:45.222Z,37.50
2023-01-07T21:42:14.536Z,37.60
2023-01-07T21:44:42.515Z,37.10
2023-01-07T21:47:10.557Z,37.40
2023-01-07T21:49:38.548Z,37.50
2023-01-07T21:52:07.254Z,37.50
2023-01-07T21:54:35.296Z,37.50
2023-01-07T21:57:03.447Z,37.50
2023-01-07T21:59:32.743Z,37.20
2023-01-07T22:02:00.935Z,36.90
2023-01-07T22:04:29.221Z,37.50
2023-01-07T22:06:57.304Z,36.90
2023-01-07T22:09:25.298Z,37.20
2023-01-07T22:11:53.245Z,36.90
2023-01-07T22:14:22.929Z,37.60
2023-01-07T22:16:52.303Z,37.50
2023-01-07T22:19:20.392Z,37.90
2023-01-07T22:21:48.343Z,37.20
2023-01-07T22:24:16.349Z,37.10
2023-01-07T22:26:44.269Z,37.20
2023-01-07T22:29:12.931Z,36.60
2023-01-07T22:31:40.994Z,37.40
2023-01-07T22:34:10.667Z,37.60
2023-01-07T22:36:45.177Z,37.20
2023-01-07T22:39:18.286Z,37.40
2023-01-07T22:41:47.287Z,37.40
2023-01-07T22:44:22.045Z,37.00
2023-01-07T22:46:53.130Z,37.20
2023-01-07T22:49:28.352Z,37.40
2023-01-07T22:51:56.898Z,37.30
2023-01-07T22:54:26.434Z,37.40
2023-01-07T22:56:54.831Z,37.00
2023-01-07T22:59:22.815Z,37.50
2023-01-07T23:01:50.812Z,37.30
2023-01-07T23:04:18.952Z,37.50
2023-01-07T23:06:48.404Z,37.30
2023-01-07T23:09:16.413Z,37.10
2023-01-07T23:11:50.708Z,37.30
2023-01-07T23:14:21.049Z,37.30
2023-01-07T23:16:50.317Z,37.00
2023-01-07T23:19:19.504Z,37.20
2023-01-07T23:21:50.847Z,37.30
2023-01-07T23:24:19.174Z,37.00
2023-01-07T23:26:48.336Z,37.30
2023-01-07T23:29:16.518Z,37.50
2023-01-07T23:31:44.818Z,36.50
2023-01-07T23:34:14.335Z,37.30
2023-01-07T23:36:42.509Z,36.90
2023-01-07T23:39:13.348Z,37.30
2023-01-07T23:41:41.313Z,37.20
2023-01-07T23:44:09.368Z,37.00
2023-01-07T23:46:37.497Z,36.50
2023-01-07T23:49:05.672Z,36.80
2023-01-07T23:51:33.658Z,36.90
2023-01-07T23:54:01.664Z,37.00
2023-01-07T23:56:30.999Z,36.80
2023-01-07T23:59:01.004Z,37.00
